Time;durP1;ratioP1;P1;durP2;ratioP2;P2;SDS_P1;SDS_P2;PMS_P1;PMS_P2;Temp;Humidity;BMP_temperature;BMP_pressure;BME280_temperature;BME280_humidity;BME280_pressure;Samples;Min_cycle;Max_cycle;Signal;HPM_P1;HPM_P2
2021/04/29 00:00:15;;;;;;;12.65;6.35;;;;;;;14.73;34.37;98338.69;5013601;28;20053;-85
2021/04/29 00:02:42;;;;;;;9.63;6.70;;;;;;;14.68;34.58;98338.28;5027695;28;20133;-85
2021/04/29 00:05:11;;;;;;;9.45;6.78;;;;;;;14.61;34.41;98330.13;5032179;28;20418;-85
2021/04/29 00:07:38;;;;;;;8.20;6.43;;;;;;;14.52;34.36;98326.56;5033588;28;20053;-85
2021/04/29 00:10:06;;;;;;;9.07;6.82;;;;;;;14.42;35.04;98320.47;5033255;28;20050;-86
2021/04/29 00:12:32;;;;;;;8.85;6.75;;;;;;;14.35;35.07;98320.22;5033315;28;20060;-85
2021/04/29 00:14:58;;;;;;;9.35;6.35;;;;;;;14.28;35.35;98324.47;5032142;28;20055;-85
2021/04/29 00:17:25;;;;;;;7.57;6.43;;;;;;;14.20;35.53;98326.03;5030263;28;20053;-85
2021/04/29 00:19:53;;;;;;;8.13;6.53;;;;;;;14.14;35.67;98321.31;5032166;28;20049;-85
2021/04/29 00:22:24;;;;;;;8.30;6.15;;;;;;;14.06;35.84;98316.75;5032335;28;20136;-85
2021/04/29 00:24:56;;;;;;;7.68;6.25;;;;;;;13.98;36.58;98318.47;5033318;28;20132;-85
2021/04/29 00:27:23;;;;;;;13.38;6.90;;;;;;;13.92;36.20;98320.72;5033174;28;20141;-85
2021/04/29 00:29:55;;;;;;;9.25;6.25;;;;;;;13.87;36.29;98322.13;5031969;28;20057;-85
2021/04/29 00:32:21;;;;;;;7.78;6.18;;;;;;;13.81;36.38;98320.88;5031963;28;20068;-85
2021/04/29 00:34:48;;;;;;;7.43;6.15;;;;;;;13.78;36.76;98326.44;5029482;28;20682;-85
2021/04/29 00:37:14;;;;;;;9.20;7.05;;;;;;;13.73;36.57;98326.91;5026485;28;20050;-85
2021/04/29 00:39:40;;;;;;;9.02;6.65;;;;;;;13.73;36.95;98332.19;5012200;28;20505;-85
2021/04/29 00:42:07;;;;;;;9.07;6.18;;;;;;;13.74;37.04;98343.56;5018339;28;20041;-85
2021/04/29 00:44:33;;;;;;;8.35;6.45;;;;;;;13.76;37.28;98354.88;5031654;28;20060;-85
2021/04/29 00:47:00;;;;;;;8.13;6.10;;;;;;;13.76;37.19;98354.88;5031548;28;20061;-85
2021/04/29 00:49:27;;;;;;;10.55;6.82;;;;;;;13.79;37.43;98362.50;5031539;28;20056;-85
2021/04/29 00:51:53;;;;;;;9.55;7.05;;;;;;;13.79;37.20;98359.84;5013782;28;20050;-85
2021/04/29 00:54:19;;;;;;;10.43;6.85;;;;;;;13.79;37.14;98362.50;5011597;28;20415;-85
2021/04/29 00:56:45;;;;;;;8.27;6.63;;;;;;;13.80;37.38;98369.47;5013197;28;20060;-85
2021/04/29 00:59:12;;;;;;;12.55;6.90;;;;;;;13.77;37.32;98373.25;5012904;28;20057;-85
2021/04/29 01:01:39;;;;;;;15.20;7.35;;;;;;;13.75;37.44;98367.25;5011867;28;20128;-85
2021/04/29 01:04:21;;;;;;;9.73;7.13;;;;;;;13.70;38.10;98371.28;5011721;28;20053;-85
2021/04/29 01:06:52;;;;;;;10.90;7.45;;;;;;;13.71;38.21;98363.22;5014224;28;20057;-85
2021/04/29 01:09:32;;;;;;;11.82;7.15;;;;;;;13.66;38.18;98362.81;5011884;28;20411;-85
2021/04/29 01:12:01;;;;;;;10.43;7.65;;;;;;;13.65;37.90;98363.78;5011534;28;20507;-85
2021/04/29 01:14:30;;;;;;;11.60;7.40;;;;;;;13.63;37.72;98363.09;5012274;28;20045;-85
2021/04/29 01:16:58;;;;;;;9.18;6.72;;;;;;;13.61;37.72;98357.13;5011576;28;20050;-85
2021/04/29 01:19:39;;;;;;;12.27;7.78;;;;;;;13.54;38.43;98360.31;5012584;28;20521;-86
2021/04/29 01:22:07;;;;;;;10.07;6.38;;;;;;;13.54;37.65;98357.66;5011620;28;20132;-85
2021/04/29 01:24:43;;;;;;;10.82;7.32;;;;;;;13.51;38.45;98359.78;5013510;28;20422;-85
2021/04/29 01:27:10;;;;;;;9.38;7.43;;;;;;;13.51;37.64;98349.19;5011370;28;20050;-85
2021/04/29 01:29:37;;;;;;;11.55;7.18;;;;;;;13.48;37.75;98350.31;5011376;28;20050;-85
2021/04/29 01:32:04;;;;;;;11.63;7.50;;;;;;;13.46;37.68;98349.56;5011443;28;20061;-85
2021/04/29 01:34:37;;;;;;;12.20;7.93;;;;;;;13.45;37.98;98349.75;5011302;28;20046;-85
2021/04/29 01:37:04;;;;;;;10.43;7.60;;;;;;;13.43;37.78;98353.34;5011800;28;20074;-85
2021/04/29 01:39:31;;;;;;;12.32;7.57;;;;;;;13.40;37.82;98348.34;5021356;28;20077;-85
2021/04/29 01:41:59;;;;;;;10.07;7.22;;;;;;;13.38;37.90;98352.94;5032367;28;20053;-85
2021/04/29 01:44:27;;;;;;;15.23;7.75;;;;;;;13.37;38.04;98350.41;5031162;28;20072;-85
2021/04/29 01:46:56;;;;;;;10.05;7.55;;;;;;;13.33;38.31;98352.53;5031225;28;20050;-85
2021/04/29 01:49:23;;;;;;;14.35;7.88;;;;;;;13.32;38.27;98361.44;5031127;28;20053;-85
2021/04/29 01:51:51;;;;;;;11.38;7.70;;;;;;;13.30;38.19;98360.72;5032294;28;20057;-85
2021/04/29 01:54:18;;;;;;;15.38;7.82;;;;;;;13.28;38.31;98367.97;5030582;28;20049;-85
2021/04/29 01:56:45;;;;;;;10.35;7.53;;;;;;;13.28;38.44;98362.69;5030624;28;20136;-85
2021/04/29 01:59:16;;;;;;;9.35;6.95;;;;;;;13.27;39.14;98368.94;5016975;28;20061;-85
2021/04/29 02:01:45;;;;;;;13.80;7.97;;;;;;;13.29;39.06;98369.63;5016163;28;20479;-85
2021/04/29 02:04:13;;;;;;;11.25;7.95;;;;;;;13.30;38.59;98360.72;5015425;28;20049;-85
2021/04/29 02:06:42;;;;;;;11.50;7.65;;;;;;;13.33;38.70;98360.44;5016059;28;20053;-85
2021/04/29 02:09:09;;;;;;;10.60;7.20;;;;;;;13.34;38.70;98362.13;5015573;28;20046;-85
2021/04/29 02:11:40;;;;;;;10.88;7.88;;;;;;;13.37;39.05;98353.06;5017904;28;20046;-85
2021/04/29 02:14:09;;;;;;;11.43;7.68;;;;;;;13.38;38.70;98355.56;5027322;28;20499;-84
2021/04/29 02:16:39;;;;;;;9.77;7.55;;;;;;;13.41;39.01;98347.38;5035576;28;20095;-85
2021/04/29 02:19:08;;;;;;;10.93;7.38;;;;;;;13.43;38.96;98353.34;5035640;28;20046;-85
2021/04/29 02:21:37;;;;;;;11.98;7.35;;;;;;;13.45;38.84;98345.28;5035445;28;20128;-85
2021/04/29 02:24:05;;;;;;;13.18;8.13;;;;;;;13.45;38.92;98344.47;5035371;28;20054;-85
2021/04/29 02:26:32;;;;;;;10.05;7.53;;;;;;;13.48;38.85;98338.91;5036515;28;20060;-85
2021/04/29 02:28:59;;;;;;;12.30;8.10;;;;;;;13.48;38.90;98338.91;5033077;28;20398;-85
2021/04/29 02:31:26;;;;;;;9.68;7.43;;;;;;;13.49;38.97;98330.00;5035772;28;20128;-85
2021/04/29 02:33:53;;;;;;;11.48;7.70;;;;;;;13.50;39.01;98332.50;5034894;28;20050;-85
2021/04/29 02:36:20;;;;;;;14.45;7.90;;;;;;;13.51;39.06;98328.91;5034990;28;20076;-85
2021/04/29 02:38:47;;;;;;;9.18;7.25;;;;;;;13.52;38.89;98330.56;5036353;28;20405;-85
2021/04/29 02:41:13;;;;;;;8.73;7.05;;;;;;;13.53;39.02;98318.19;5035820;28;20053;-85
2021/04/29 02:43:40;;;;;;;11.45;7.63;;;;;;;13.54;39.18;98322.50;5034448;28;20050;-85
2021/04/29 02:46:07;;;;;;;14.15;6.95;;;;;;;13.54;38.88;98323.31;5030442;28;20050;-85
2021/04/29 02:48:33;;;;;;;8.88;6.75;;;;;;;13.57;39.14;98322.19;5015230;28;20057;-85
2021/04/29 02:51:01;;;;;;;8.80;6.25;;;;;;;13.57;39.04;98319.53;5015553;28;20511;-85
2021/04/29 02:53:32;;;;;;;10.60;8.00;;;;;;;13.59;39.58;98316.75;5013762;28;20058;-85
2021/04/29 02:55:58;;;;;;;10.55;7.75;;;;;;;13.60;39.37;98318.44;5014085;28;20104;-85
2021/04/29 02:58:24;;;;;;;12.18;7.80;;;;;;;13.61;39.15;98315.63;5015074;28;20081;-85
2021/04/29 03:00:53;;;;;;;11.15;7.85;;;;;;;13.62;39.25;98304.09;5033288;28;20046;-85
2021/04/29 03:03:20;;;;;;;11.55;7.88;;;;;;;13.63;39.26;98300.47;5034339;28;20460;-85
2021/04/29 03:05:47;;;;;;;13.38;8.48;;;;;;;13.66;39.38;98296.72;5034322;28;20455;-84
2021/04/29 03:08:14;;;;;;;11.48;7.95;;;;;;;13.67;39.72;98296.56;5034683;28;20061;-84
2021/04/29 03:10:40;;;;;;;10.27;7.68;;;;;;;13.66;39.52;98289.63;5034731;28;20053;-85
2021/04/29 03:13:06;;;;;;;16.90;8.80;;;;;;;13.67;39.59;98293.91;5030216;28;20479;-85
2021/04/29 03:15:32;;;;;;;12.13;7.93;;;;;;;13.66;39.54;98292.25;5014531;28;20053;-85
2021/04/29 03:17:59;;;;;;;12.13;7.90;;;;;;;13.66;39.67;98294.91;5015778;28;20050;-85
2021/04/29 03:20:37;;;;;;;13.57;7.63;;;;;;;13.67;39.70;98290.44;5014582;28;20104;-85
2021/04/29 03:23:03;;;;;;;11.23;7.97;;;;;;;13.66;39.55;98283.47;5014456;28;20060;-85
2021/04/29 03:25:29;;;;;;;10.98;7.63;;;;;;;13.64;39.82;98283.63;5015574;28;20064;-85
2021/04/29 03:27:56;;;;;;;10.27;7.57;;;;;;;13.63;39.83;98289.06;5015561;28;20517;-85
2021/04/29 03:30:22;;;;;;;13.23;7.65;;;;;;;13.62;39.71;98288.25;5016727;28;20491;-85
2021/04/29 03:32:49;;;;;;;12.27;8.15;;;;;;;13.60;39.92;98282.25;5015457;28;20046;-85
2021/04/29 03:35:15;;;;;;;11.90;8.23;;;;;;;13.58;40.00;98278.94;5013863;28;20046;-85
2021/04/29 03:37:42;;;;;;;10.55;7.35;;;;;;;13.56;40.01;98272.94;5014363;28;20152;-85
2021/04/29 03:40:09;;;;;;;11.40;8.13;;;;;;;13.53;40.19;98279.34;5014175;28;20056;-85
2021/04/29 03:42:35;;;;;;;15.27;7.97;;;;;;;13.50;40.27;98278.81;5013999;28;20054;-85
2021/04/29 03:45:05;;;;;;;11.32;8.00;;;;;;;13.45;40.66;98270.44;5015279;28;20060;-85
2021/04/29 03:47:31;;;;;;;11.85;8.10;;;;;;;13.41;40.42;98276.00;5033652;28;20059;-85
2021/04/29 03:49:58;;;;;;;10.13;7.95;;;;;;;13.37;40.37;98266.69;5033908;28;20053;-85
2021/04/29 03:52:24;;;;;;;10.73;8.57;;;;;;;13.33;40.44;98267.97;5033760;28;20054;-85
2021/04/29 03:54:51;;;;;;;9.88;8.23;;;;;;;13.29;40.57;98272.69;5033352;28;20056;-85
2021/04/29 03:57:17;;;;;;;12.00;8.32;;;;;;;13.25;40.87;98275.75;5034093;28;20053;-85
2021/04/29 03:59:43;;;;;;;14.80;8.48;;;;;;;13.23;40.85;98275.06;5033204;28;20517;-85
2021/04/29 04:02:11;;;;;;;11.98;8.20;;;;;;;13.19;40.77;98271.88;5011403;28;20045;-85
2021/04/29 04:04:37;;;;;;;14.95;8.55;;;;;;;13.16;41.15;98270.34;5015017;28;20136;-85
2021/04/29 04:07:03;;;;;;;21.48;8.25;;;;;;;13.15;41.14;98270.47;5033265;28;20050;-85
2021/04/29 04:09:29;;;;;;;12.57;8.93;;;;;;;13.13;41.24;98270.63;5033211;28;20441;-86
2021/04/29 04:11:55;;;;;;;12.55;8.75;;;;;;;13.10;41.28;98263.00;5034461;28;20060;-85
2021/04/29 04:14:21;;;;;;;14.70;9.40;;;;;;;13.08;41.60;98257.00;5033196;28;20079;-85
2021/04/29 04:16:48;;;;;;;10.55;8.63;;;;;;;13.07;41.49;98252.69;5049526;28;20053;-85
2021/04/29 04:19:14;;;;;;;14.85;9.55;;;;;;;13.06;41.63;98256.31;5020022;28;20054;-85
2021/04/29 04:21:40;;;;;;;11.27;8.82;;;;;;;13.05;41.95;98254.66;5013397;28;20049;-85
2021/04/29 04:24:07;;;;;;;13.02;9.13;;;;;;;13.06;41.94;98253.69;5013833;28;20049;-85
2021/04/29 04:26:33;;;;;;;14.23;9.40;;;;;;;13.05;41.89;98252.03;5014263;28;20396;-85
2021/04/29 04:28:59;;;;;;;10.45;8.55;;;;;;;13.06;42.15;98252.84;5013804;28;20042;-85
2021/04/29 04:31:25;;;;;;;10.77;8.85;;;;;;;13.06;42.25;98256.31;5013725;28;20045;-85
2021/04/29 04:33:51;;;;;;;10.73;8.70;;;;;;;13.07;42.27;98250.06;5013659;28;20054;-85
2021/04/29 04:36:18;;;;;;;15.23;8.63;;;;;;;13.08;42.33;98237.69;5033496;28;20091;-85
2021/04/29 04:38:45;;;;;;;13.52;9.65;;;;;;;13.09;42.48;98237.53;5032725;28;20136;-85
2021/04/29 04:41:11;;;;;;;14.60;9.75;;;;;;;13.09;42.61;98239.34;5032701;28;20049;-85
2021/04/29 04:43:39;;;;;;;12.73;9.68;;;;;;;13.08;43.11;98243.78;5032521;28;20095;-85
2021/04/29 04:46:08;;;;;;;17.92;11.40;;;;;;;13.07;43.68;98250.06;5032387;28;20042;-85
2021/04/29 04:48:34;;;;;;;11.70;9.20;;;;;;;13.09;43.53;98252.56;5033639;28;20520;-86
2021/04/29 04:51:03;;;;;;;15.65;9.73;;;;;;;13.08;43.58;98248.25;5027026;28;20597;-85
2021/04/29 04:53:29;;;;;;;13.07;9.20;;;;;;;13.08;43.55;98254.34;5014181;28;20091;-85
2021/04/29 04:55:55;;;;;;;13.88;10.63;;;;;;;13.08;43.91;98254.34;5012562;28;20050;-85
2021/04/29 04:58:21;;;;;;;12.55;9.88;;;;;;;13.09;44.14;98253.38;5013258;28;20050;-85
2021/04/29 05:00:49;;;;;;;14.25;10.23;;;;;;;13.11;44.05;98258.53;5014465;28;20056;-85
2021/04/29 05:03:16;;;;;;;15.02;10.48;;;;;;;13.11;44.40;98263.81;5012782;28;20049;-85
2021/04/29 05:05:43;;;;;;;12.73;9.63;;;;;;;13.14;44.26;98267.03;5012386;28;20392;-84
2021/04/29 05:08:10;;;;;;;14.68;10.68;;;;;;;13.15;44.51;98263.41;5021862;28;20062;-85
2021/04/29 05:10:37;;;;;;;13.15;9.57;;;;;;;13.16;44.66;98267.69;5015620;28;20049;-86
2021/04/29 05:13:04;;;;;;;10.73;8.75;;;;;;;13.18;44.85;98266.72;5014192;28;20057;-84
2021/04/29 05:15:35;;;;;;;12.43;9.63;;;;;;;13.21;45.10;98263.81;5013495;28;20054;-85
2021/04/29 05:18:01;;;;;;;13.02;9.50;;;;;;;13.22;44.97;98266.31;5013751;28;20549;-85
2021/04/29 05:20:28;;;;;;;14.43;9.02;;;;;;;13.26;45.08;98272.13;5013747;28;20057;-85
2021/04/29 05:22:55;;;;;;;11.75;9.40;;;;;;;13.28;45.27;98267.56;5012918;28;20049;-84
2021/04/29 05:25:22;;;;;;;11.90;8.57;;;;;;;13.31;45.42;98274.38;5013413;28;20082;-85
2021/04/29 05:27:53;;;;;;;11.20;8.65;;;;;;;13.31;46.02;98269.06;5013546;28;20050;-85
2021/04/29 05:30:20;;;;;;;12.10;9.95;;;;;;;13.34;45.57;98274.91;4995836;28;20057;-85
2021/04/29 05:32:47;;;;;;;13.32;9.80;;;;;;;13.36;45.61;98270.31;5013435;28;20046;-85
2021/04/29 05:35:14;;;;;;;16.92;10.15;;;;;;;13.38;45.66;98265.72;5015147;28;20132;-85
2021/04/29 05:37:40;;;;;;;12.00;8.90;;;;;;;13.38;45.50;98271.00;5017732;28;20057;-85
2021/04/29 05:40:07;;;;;;;12.05;9.27;;;;;;;13.40;45.74;98281.44;5018424;28;20050;-85
2021/04/29 05:42:34;;;;;;;10.07;8.40;;;;;;;13.39;45.64;98272.66;5021062;28;20049;-85
2021/04/29 05:45:00;;;;;;;12.27;8.73;;;;;;;13.40;45.85;98279.63;5036786;28;20053;-85
2021/04/29 05:47:27;;;;;;;11.88;8.93;;;;;;;13.42;46.01;98271.56;5036147;28;20061;-85
2021/04/29 05:49:53;;;;;;;13.35;8.88;;;;;;;13.42;46.00;98282.94;5037003;28;20059;-85
2021/04/29 05:52:19;;;;;;;14.27;9.68;;;;;;;13.43;45.94;98278.50;5037424;28;20050;-85
2021/04/29 05:54:45;;;;;;;11.88;8.13;;;;;;;13.46;46.44;98283.50;5035221;28;20045;-85
2021/04/29 05:57:11;;;;;;;13.98;8.93;;;;;;;13.49;46.40;98279.78;5035956;28;20402;-85
2021/04/29 05:59:38;;;;;;;10.98;8.23;;;;;;;13.52;46.66;98276.84;5035844;28;20045;-85
2021/04/29 06:02:04;;;;;;;9.13;7.85;;;;;;;13.55;46.42;98281.84;5036910;28;20418;-85
2021/04/29 06:04:45;;;;;;;7.45;6.20;;;;;;;13.60;46.53;98284.06;5036353;28;20483;-85
2021/04/29 06:07:15;;;;;;;8.70;7.30;;;;;;;13.64;47.01;98282.81;5036604;28;20125;-85
2021/04/29 06:09:42;;;;;;;6.30;5.65;;;;;;;13.68;47.06;98284.16;5036833;28;20235;-84
2021/04/29 06:12:13;;;;;;;8.13;6.05;;;;;;;13.73;47.27;98286.38;5035288;28;20513;-85
2021/04/29 06:14:40;;;;;;;7.20;5.55;;;;;;;13.78;46.93;98282.34;5036173;28;20539;-85
2021/04/29 06:17:06;;;;;;;5.95;5.07;;;;;;;13.84;47.19;98282.72;5034680;28;20053;-84
2021/04/29 06:19:34;;;;;;;6.53;5.32;;;;;;;13.89;47.24;98281.31;5036346;28;20128;-84
2021/04/29 06:22:01;;;;;;;8.63;5.20;;;;;;;13.93;47.40;98282.69;5035533;28;20060;-85
2021/04/29 06:24:27;;;;;;;6.38;5.47;;;;;;;13.97;47.56;98279.78;5036410;28;20045;-84
2021/04/29 06:26:53;;;;;;;7.35;5.40;;;;;;;14.01;47.87;98275.81;5036345;28;20053;-85
2021/04/29 06:29:19;;;;;;;8.25;4.75;;;;;;;14.04;47.89;98270.25;5035570;28;20072;-84
2021/04/29 06:31:48;;;;;;;6.95;5.05;;;;;;;14.08;47.75;98276.91;5034499;28;20055;-85
2021/04/29 06:34:14;;;;;;;8.30;5.68;;;;;;;14.12;48.15;98270.34;5016147;28;20042;-85
2021/04/29 06:36:41;;;;;;;6.95;5.20;;;;;;;14.17;47.96;98276.03;5016414;28;20442;-85
2021/04/29 06:39:07;;;;;;;8.68;5.13;;;;;;;14.22;48.17;98278.25;5016510;28;20439;-85
2021/04/29 06:41:33;;;;;;;8.55;5.43;;;;;;;14.27;48.28;98283.06;5018918;28;20049;-85
2021/04/29 06:43:59;;;;;;;9.82;5.75;;;;;;;14.30;48.39;98275.69;5026739;28;20137;-85
2021/04/29 06:46:25;;;;;;;10.75;5.30;;;;;;;14.33;48.29;98274.56;5017530;28;20482;-85
2021/04/29 06:48:52;;;;;;;9.45;5.75;;;;;;;14.37;48.43;98275.94;5029478;28;20543;-84
2021/04/29 06:51:18;;;;;;;10.05;6.05;;;;;;;14.41;48.52;98266.72;5015675;28;20050;-85
2021/04/29 06:53:59;;;;;;;8.38;6.70;;;;;;;14.46;48.84;98274.19;5015270;28;20049;-85
2021/04/29 06:56:25;;;;;;;9.93;7.05;;;;;;;14.47;48.90;98275.88;5016569;28;20050;-85
2021/04/29 06:59:00;;;;;;;12.77;7.57;;;;;;;14.46;48.49;98282.13;5016954;28;20136;-85
2021/04/29 07:01:27;;;;;;;10.07;6.68;;;;;;;14.44;49.30;98282.28;5036010;28;20053;-84
2021/04/29 07:03:55;;;;;;;9.68;7.65;;;;;;;14.42;48.64;98284.25;5029102;28;20442;-84
2021/04/29 07:06:21;;;;;;;10.18;7.10;;;;;;;14.41;48.49;98272.00;5016158;28;20057;-85
2021/04/29 07:08:48;;;;;;;8.77;7.18;;;;;;;14.40;48.65;98280.94;5019379;28;20056;-85
2021/04/29 07:11:15;;;;;;;10.68;7.80;;;;;;;14.40;49.00;98275.63;5035794;28;20441;-85
2021/04/29 07:13:41;;;;;;;11.13;8.13;;;;;;;14.41;48.81;98272.00;5034234;28;20060;-84
2021/04/29 07:16:07;;;;;;;11.13;8.63;;;;;;;14.42;48.85;98283.41;5015451;28;20056;-85
2021/04/29 07:18:33;;;;;;;14.55;9.13;;;;;;;14.41;48.87;98282.59;5014459;28;20061;-84
2021/04/29 07:21:03;;;;;;;12.20;9.65;;;;;;;14.43;48.47;98274.50;5024401;28;20156;-85
2021/04/29 07:23:29;;;;;;;12.32;8.93;;;;;;;14.43;48.68;98274.50;5035454;28;20072;-85
2021/04/29 07:25:55;;;;;;;15.00;9.98;;;;;;;14.44;48.75;98278.81;5035448;28;20049;-85
2021/04/29 07:28:22;;;;;;;13.68;9.80;;;;;;;14.46;48.94;98274.19;5035113;28;20064;-85
2021/04/29 07:30:49;;;;;;;14.15;10.80;;;;;;;14.49;48.96;98273.06;5024383;28;20054;-85
2021/04/29 07:33:16;;;;;;;15.85;11.05;;;;;;;14.54;48.67;98270.81;5019708;28;20103;-84
2021/04/29 07:35:43;;;;;;;14.40;11.48;;;;;;;14.58;48.43;98274.81;5034725;28;20140;-84
2021/04/29 07:38:10;;;;;;;17.85;11.05;;;;;;;14.63;47.95;98263.75;5033924;28;20045;-85
2021/04/29 07:40:36;;;;;;;19.95;12.70;;;;;;;14.67;47.88;98276.56;5035101;28;20419;-85
2021/04/29 07:43:03;;;;;;;16.40;12.95;;;;;;;14.71;47.79;98271.78;5035277;28;20430;-85
2021/04/29 07:45:30;;;;;;;16.92;11.52;;;;;;;14.73;47.58;98268.00;5032446;28;20080;-84
2021/04/29 07:47:57;;;;;;;17.55;13.05;;;;;;;14.76;46.74;98285.44;5035458;28;20137;-85
2021/04/29 07:50:24;;;;;;;17.42;12.68;;;;;;;14.77;46.11;98275.69;5034151;28;20049;-84
2021/04/29 07:52:50;;;;;;;17.63;12.75;;;;;;;14.79;45.43;98284.31;5026708;28;20046;-85
2021/04/29 07:55:17;;;;;;;20.20;13.07;;;;;;;14.78;44.88;98274.69;5014860;28;20049;-85
2021/04/29 07:57:44;;;;;;;22.13;12.75;;;;;;;14.79;44.51;98276.34;5014679;28;20584;-85
2021/04/29 08:00:13;;;;;;;19.10;13.63;;;;;;;14.76;44.11;98282.78;5016211;28;20049;-85
2021/04/29 08:02:41;;;;;;;17.17;12.55;;;;;;;14.81;44.07;98292.94;5015348;28;20503;-85
2021/04/29 08:05:09;;;;;;;19.50;12.80;;;;;;;14.84;43.67;98287.34;5013602;28;20089;-85
2021/04/29 08:07:35;;;;;;;16.52;13.13;;;;;;;14.86;43.30;98290.66;5015506;28;20057;-85
2021/04/29 08:10:03;;;;;;;18.20;13.10;;;;;;;14.87;43.40;98292.31;5018135;28;20415;-84
2021/04/29 08:12:29;;;;;;;16.58;12.02;;;;;;;14.92;43.31;98287.41;5034419;28;20065;-85
2021/04/29 08:14:58;;;;;;;18.88;12.02;;;;;;;15.00;43.65;98291.13;5033788;28;20049;-81
2021/04/29 08:17:27;;;;;;;20.33;12.68;;;;;;;15.10;43.34;98284.75;5034724;28;20510;-84
2021/04/29 08:19:54;;;;;;;18.85;13.30;;;;;;;15.22;43.15;98284.50;5034814;28;20502;-83
2021/04/29 08:22:22;;;;;;;18.02;13.10;;;;;;;15.34;43.11;98290.41;5034682;28;20049;-85
2021/04/29 08:24:50;;;;;;;18.42;12.32;;;;;;;15.46;42.75;98302.41;5023151;28;20057;-84
2021/04/29 08:27:17;;;;;;;16.60;12.32;;;;;;;15.54;42.50;98298.13;5021611;28;20049;-85
2021/04/29 08:29:43;;;;;;;18.50;12.52;;;;;;;15.60;42.07;98293.06;5033169;28;20049;-85
2021/04/29 08:32:09;;;;;;;16.83;12.40;;;;;;;15.66;42.23;98299.53;5034824;28;20057;-84
2021/04/29 08:34:35;;;;;;;17.23;12.02;;;;;;;15.71;42.07;98313.19;5033108;28;20049;-85
2021/04/29 08:37:02;;;;;;;15.13;11.85;;;;;;;15.75;42.06;98309.22;5034161;28;20049;-85
2021/04/29 08:39:29;;;;;;;15.85;12.23;;;;;;;15.82;41.99;98312.09;5015576;28;20050;-85
2021/04/29 08:41:55;;;;;;;15.02;12.45;;;;;;;15.86;42.06;98312.59;5013527;28;20096;-84
2021/04/29 08:44:21;;;;;;;16.00;11.32;;;;;;;15.88;41.72;98319.41;5014018;28;20462;-85
2021/04/29 08:46:48;;;;;;;14.77;11.70;;;;;;;15.92;42.19;98316.44;5013570;28;20054;-85
2021/04/29 08:49:15;;;;;;;17.65;12.02;;;;;;;15.96;41.94;98329.25;5014104;28;20057;-85
2021/04/29 08:51:42;;;;;;;15.40;12.45;;;;;;;15.99;41.54;98313.03;5013377;28;20061;-85
2021/04/29 08:54:08;;;;;;;13.95;11.18;;;;;;;16.01;41.57;98321.66;5014904;28;20457;-85
2021/04/29 08:56:34;;;;;;;18.48;12.52;;;;;;;16.03;41.56;98329.47;5018232;28;20076;-84
2021/04/29 08:59:00;;;;;;;15.98;11.90;;;;;;;16.04;41.49;98320.53;5033955;28;20072;-84
2021/04/29 09:01:38;;;;;;;18.90;12.65;;;;;;;16.02;41.63;98323.34;5032986;28;20128;-84
2021/04/29 09:04:18;;;;;;;21.88;13.00;;;;;;;16.06;42.02;98333.63;5033575;28;20124;-84
2021/04/29 09:06:46;;;;;;;16.85;12.82;;;;;;;16.16;41.70;98339.66;5034050;28;20046;-84
2021/04/29 09:09:14;;;;;;;19.40;13.45;;;;;;;16.22;41.70;98336.34;5033705;28;20375;-84
2021/04/29 09:11:55;;;;;;;17.13;12.85;;;;;;;16.24;42.05;98314.97;5017998;28;20092;-84
2021/04/29 09:14:36;;;;;;;17.13;12.88;;;;;;;16.34;42.27;98320.97;5012568;28;20151;-85
2021/04/29 09:17:03;;;;;;;17.40;12.48;;;;;;;16.45;42.16;98333.13;5013828;28;20108;-85
2021/04/29 09:19:35;;;;;;;21.17;13.82;;;;;;;16.53;41.86;98354.41;4997106;28;20073;-85
2021/04/29 09:22:04;;;;;;;14.80;12.82;;;;;;;16.60;41.24;98341.28;5014339;28;20054;-84
2021/04/29 09:24:38;;;;;;;20.83;13.43;;;;;;;16.61;40.94;98334.16;5017341;28;20395;-85
2021/04/29 09:27:11;;;;;;;18.88;13.63;;;;;;;16.64;40.84;98360.44;5033632;28;20055;-85
2021/04/29 09:29:48;;;;;;;;;;;;;;;16.61;40.56;98355.41;5029118;28;20168;-85
2021/04/29 09:32:30;;;;;;;17.67;13.88;;;;;;;16.62;40.74;98363.22;5012470;28;19925;-84
2021/04/29 09:34:58;;;;;;;17.90;13.48;;;;;;;16.67;40.48;98355.59;5019034;28;20042;-85
2021/04/29 09:37:34;;;;;;;15.27;12.73;;;;;;;16.66;41.32;98350.44;5016016;28;20057;-84
2021/04/29 09:40:18;;;;;;;17.48;14.13;;;;;;;16.72;40.49;98355.13;5033913;28;20100;-84
2021/04/29 09:42:47;;;;;;;18.80;14.02;;;;;;;16.80;40.26;98352.50;5033901;28;20045;-85
2021/04/29 09:45:25;;;;;;;20.77;14.35;;;;;;;16.84;40.09;98349.50;5034061;28;20084;-85
2021/04/29 09:48:00;;;;;;;16.45;13.90;;;;;;;16.88;40.63;98359.66;5034124;28;20045;-85
2021/04/29 09:50:56;;;;;;;20.42;13.63;;;;;;;16.89;40.17;98352.50;5034087;28;20054;-85
2021/04/29 09:53:22;;;;;;;17.50;14.00;;;;;;;16.97;39.92;98357.00;5033383;28;20045;-84
2021/04/29 09:55:49;;;;;;;16.35;14.02;;;;;;;16.97;40.09;98367.66;5033766;28;20057;-85
2021/04/29 09:58:17;;;;;;;20.88;14.48;;;;;;;16.98;40.33;98388.75;5033745;28;20049;-85
2021/04/29 10:00:46;;;;;;;22.88;14.57;;;;;;;17.01;40.62;98374.28;5033470;28;20080;-85
2021/04/29 10:03:13;;;;;;;16.73;13.05;;;;;;;17.11;41.58;98380.31;5033449;28;20069;-85
2021/04/29 10:05:40;;;;;;;16.05;14.35;;;;;;;17.23;41.20;98367.53;5019975;28;20132;-85
2021/04/29 10:08:14;;;;;;;24.08;14.07;;;;;;;17.31;40.99;98364.88;5012526;28;20053;-85
2021/04/29 10:10:47;;;;;;;16.40;13.90;;;;;;;17.40;40.40;98376.38;5012229;28;20053;-85
2021/04/29 10:13:13;;;;;;;17.27;13.43;;;;;;;17.47;39.88;98368.53;5012190;28;20108;-84
2021/04/29 10:15:42;;;;;;;20.65;14.52;;;;;;;17.47;39.76;98376.53;5012795;28;20045;-85
2021/04/29 10:18:10;;;;;;;19.98;14.70;;;;;;;17.43;39.97;98372.53;5013266;28;20068;-85
2021/04/29 10:20:39;;;;;;;16.75;14.00;;;;;;;17.40;40.12;98375.50;5014020;28;20054;-84
2021/04/29 10:23:09;;;;;;;19.38;13.90;;;;;;;17.37;40.55;98383.81;5016672;28;20080;-85
2021/04/29 10:25:36;;;;;;;20.48;13.98;;;;;;;17.37;40.17;98370.53;5016114;28;20541;-84
2021/04/29 10:28:03;;;;;;;20.80;14.75;;;;;;;17.32;39.58;98379.81;5016808;28;20423;-85
2021/04/29 10:30:38;;;;;;;19.13;15.27;;;;;;;17.25;39.11;98381.50;5016361;28;20057;-85
2021/04/29 10:33:16;;;;;;;22.05;15.65;;;;;;;17.21;39.07;98390.81;5016812;28;20057;-85
2021/04/29 10:36:00;;;;;;;19.50;15.32;;;;;;;17.21;38.93;98398.78;5015833;28;20054;-85
2021/04/29 10:38:32;;;;;;;17.98;14.25;;;;;;;17.25;39.47;98386.81;5016764;28;20069;-84
2021/04/29 10:41:15;;;;;;;21.95;14.93;;;;;;;17.30;39.42;98395.13;5016589;28;20407;-85
2021/04/29 10:43:42;;;;;;;22.67;15.18;;;;;;;17.41;39.35;98395.78;5019633;28;20606;-84
2021/04/29 10:46:08;;;;;;;23.25;15.25;;;;;;;17.49;39.24;98390.47;5035918;28;20494;-85
2021/04/29 10:48:48;;;;;;;19.60;14.82;;;;;;;17.53;38.95;98399.78;5032404;28;20057;-85
2021/04/29 10:51:15;;;;;;;21.67;17.17;;;;;;;17.54;38.20;98400.63;5031882;28;20046;-85
2021/04/29 10:53:41;;;;;;;26.27;16.90;;;;;;;17.52;38.13;98392.81;5034748;28;20057;-84
2021/04/29 10:56:14;;;;;;;21.25;17.13;;;;;;;17.52;37.94;98398.13;5034661;28;20049;-85
2021/04/29 10:58:40;;;;;;;;;;;;;;;17.56;37.86;98403.94;5036714;28;20052;-86
2021/04/29 11:01:11;;;;;;;23.33;16.45;;;;;;;17.64;37.90;98395.16;5034335;28;19928;-85
2021/04/29 11:03:40;;;;;;;18.30;15.27;;;;;;;17.74;38.80;98395.78;5035850;28;20494;-84
2021/04/29 11:06:34;;;;;;;24.00;14.88;;;;;;;17.88;39.68;98399.63;5035384;28;20148;-85
2021/04/29 11:09:01;;;;;;;21.50;15.55;;;;;;;18.10;38.86;98390.09;5035637;28;20060;-84
2021/04/29 11:11:37;;;;;;;28.63;16.80;;;;;;;18.29;37.44;98405.88;5036021;28;20068;-85
2021/04/29 11:14:17;;;;;;;17.77;15.10;;;;;;;18.52;36.85;98405.97;5034969;28;20405;-85
2021/04/29 11:16:53;;;;;;;17.98;15.98;;;;;;;18.83;36.29;98398.97;5024301;28;20076;-85
2021/04/29 11:19:57;;;;;;;20.95;15.13;;;;;;;19.14;35.18;98417.66;5016133;28;20076;-85
2021/04/29 11:22:25;;;;;;;16.98;14.90;;;;;;;19.57;36.99;98404.88;5015869;28;20100;-85
2021/04/29 11:24:52;;;;;;;23.63;15.05;;;;;;;19.85;36.53;98402.44;5015408;28;20046;-85
2021/04/29 11:27:24;;;;;;;21.35;15.52;;;;;;;20.02;33.82;98405.00;5022465;28;20133;-85
2021/04/29 11:30:01;;;;;;;17.90;15.10;;;;;;;20.20;34.63;98382.44;5034355;28;20056;-85